Time;durP1;ratioP1;P1;durP2;ratioP2;P2;SDS_P1;SDS_P2;PMS_P1;PMS_P2;Temp;Humidity;BMP_temperature;BMP_pressure;BME280_temperature;BME280_humidity;BME280_pressure;Samples;Min_cycle;Max_cycle;Signal;HPM_P1;HPM_P2
2023/05/27 00:03:46;;;;;;;;;;;13.10;91.90;;;;;;8388552;28;20293;-74
2023/05/27 00:07:48;;;;;;;;;;;13.10;91.90;;;;;;8376375;28;19929;-74
2023/05/27 00:11:50;;;;;;;;;;;13.00;91.80;;;;;;8390026;28;19936;-74
2023/05/27 00:15:51;;;;;;;;;;;13.00;91.80;;;;;;8386684;28;19979;-74
2023/05/27 00:19:53;;;;;;;;;;;12.90;91.80;;;;;;8394345;28;20371;-73
2023/05/27 00:23:57;;;;;;;;;;;12.90;91.90;;;;;;8388644;28;19928;-73
2023/05/27 00:27:59;;;;;;;;;;;12.80;91.80;;;;;;8367279;28;20326;-73
2023/05/27 00:32:02;;;;;;;;;;;12.70;91.90;;;;;;8387673;28;19929;-74
2023/05/27 00:36:04;;;;;;;;;;;12.70;91.90;;;;;;8374251;28;19929;-74
2023/05/27 00:40:08;;;;;;;;;;;12.60;91.90;;;;;;8385303;28;19924;-74
2023/05/27 00:44:10;;;;;;;;;;;12.60;91.90;;;;;;8394442;28;19969;-73
2023/05/27 00:48:12;;;;;;;;;;;12.50;91.90;;;;;;8366265;28;19928;-74
2023/05/27 00:52:14;;;;;;;;;;;12.50;91.90;;;;;;8386106;28;19947;-74
2023/05/27 00:56:15;;;;;;;;;;;12.50;91.90;;;;;;8367876;28;20368;-73
2023/05/27 01:00:17;;;;;;;;;;;12.40;91.90;;;;;;8385312;28;19995;-74
2023/05/27 01:04:20;;;;;;;;;;;12.40;91.90;;;;;;8380173;28;19924;-74
2023/05/27 01:08:27;;;;;;;;;;;12.30;91.80;;;;;;8374581;28;19989;-73
2023/05/27 01:12:32;;;;;;;;;;;12.20;91.80;;;;;;8384409;28;19929;-74
2023/05/27 01:16:34;;;;;;;;;;;12.20;91.80;;;;;;8381827;28;19928;-74
2023/05/27 01:20:40;;;;;;;;;;;12.10;91.80;;;;;;8384900;28;19935;-74
2023/05/27 01:24:42;;;;;;;;;;;12.10;91.90;;;;;;8384992;28;19929;-74
2023/05/27 01:28:44;;;;;;;;;;;12.10;91.90;;;;;;8377264;28;19928;-74
2023/05/27 01:32:51;;;;;;;;;;;12.10;92.00;;;;;;8386571;28;19924;-74
2023/05/27 01:36:55;;;;;;;;;;;12.00;92.00;;;;;;8363925;28;19929;-74
2023/05/27 01:51:05;;;;;;;;;;;11.90;91.90;;;;;;8391172;28;20394;-74
2023/05/27 01:55:07;;;;;;;;;;;11.80;91.90;;;;;;8369921;28;19925;-74
2023/05/27 01:59:09;;;;;;;;;;;11.80;92.00;;;;;;8376541;28;19978;-74
2023/05/27 02:03:11;;;;;;;;;;;11.80;92.00;;;;;;8386539;28;19924;-74
2023/05/27 02:22:22;;;;;;;;;;;11.60;92.00;;;;;;8385970;28;20054;-74
2023/05/27 02:26:24;;;;;;;;;;;11.50;92.00;;;;;;8390847;28;19925;-74
2023/05/27 02:30:27;;;;;;;;;;;11.50;92.00;;;;;;8401844;28;19978;-74
2023/05/27 02:44:41;;;;;;;;;;;11.30;92.00;;;;;;8381090;28;20030;-74
2023/05/27 02:48:43;;;;;;;;;;;11.20;92.00;;;;;;8380384;28;19932;-74
2023/05/27 02:52:45;;;;;;;;;;;11.20;92.00;;;;;;8385620;28;19925;-73
2023/05/27 02:56:46;;;;;;;;;;;11.10;91.90;;;;;;8400244;28;20420;-74
2023/05/27 03:00:48;;;;;;;;;;;11.10;92.00;;;;;;8373718;28;19928;-74
2023/05/27 03:04:50;;;;;;;;;;;11.00;92.00;;;;;;8387749;28;19943;-73
2023/05/27 03:08:51;;;;;;;;;;;11.00;92.00;;;;;;8369686;28;19940;-74
2023/05/27 03:12:53;;;;;;;;;;;11.00;92.00;;;;;;8381896;28;19932;-74
2023/05/27 03:16:55;;;;;;;;;;;10.90;92.00;;;;;;8388324;28;19952;-74
2023/05/27 03:20:57;;;;;;;;;;;10.90;92.10;;;;;;8372591;28;19924;-74
2023/05/27 03:24:58;;;;;;;;;;;10.90;92.00;;;;;;8392899;28;19985;-74
2023/05/27 03:29:00;;;;;;;;;;;10.80;92.00;;;;;;8388718;28;19991;-73
2023/05/27 03:33:02;;;;;;;;;;;10.70;92.00;;;;;;8395314;28;19928;-73
2023/05/27 03:37:04;;;;;;;;;;;10.60;92.00;;;;;;8392999;28;20745;-73
2023/05/27 03:41:06;;;;;;;;;;;10.60;92.10;;;;;;8385269;28;19935;-74
2023/05/27 03:45:09;;;;;;;;;;;10.60;92.10;;;;;;8362102;28;19933;-74
2023/05/27 03:49:11;;;;;;;;;;;10.50;92.40;;;;;;8392460;28;19978;-74
2023/05/27 03:53:13;;;;;;;;;;;10.50;92.10;;;;;;8389128;28;19935;-74
2023/05/27 03:57:15;;;;;;;;;;;10.50;92.20;;;;;;8365264;28;19943;-74
2023/05/27 04:01:17;;;;;;;;;;;10.40;92.20;;;;;;8382383;28;19924;-74
2023/05/27 04:05:19;;;;;;;;;;;10.40;92.30;;;;;;8385640;28;19929;-75
2023/05/27 04:24:30;;;;;;;;;;;10.40;92.40;;;;;;8383047;28;19928;-73
2023/05/27 04:28:34;;;;;;;;;;;10.40;92.50;;;;;;8389805;28;19924;-74
2023/05/27 04:32:37;;;;;;;;;;;10.50;92.60;;;;;;8388555;28;19928;-74
2023/05/27 04:36:39;;;;;;;;;;;10.50;92.70;;;;;;8384683;28;19937;-74
2023/05/27 04:40:41;;;;;;;;;;;10.50;92.80;;;;;;8376511;28;20308;-73
2023/05/27 04:44:42;;;;;;;;;;;10.60;92.90;;;;;;8387520;28;19924;-74
2023/05/27 04:48:46;;;;;;;;;;;10.60;93.10;;;;;;8378474;28;19986;-74
2023/05/27 04:52:47;;;;;;;;;;;10.70;93.20;;;;;;8385558;28;19952;-74
2023/05/27 04:56:51;;;;;;;;;;;10.80;93.30;;;;;;8386718;28;19928;-73
2023/05/27 05:00:56;;;;;;;;;;;10.90;93.50;;;;;;8397494;28;19928;-74
2023/05/27 05:04:58;;;;;;;;;;;11.00;93.70;;;;;;8386408;28;19924;-73
2023/05/27 05:08:59;;;;;;;;;;;11.10;93.80;;;;;;8361974;28;19925;-74
2023/05/27 05:13:01;;;;;;;;;;;11.10;93.90;;;;;;8390897;28;20407;-74
2023/05/27 05:17:03;;;;;;;;;;;11.20;94.10;;;;;;8368531;28;20343;-74
2023/05/27 05:21:07;;;;;;;;;;;11.30;94.30;;;;;;8368060;28;19924;-74
2023/05/27 05:25:10;;;;;;;;;;;11.30;94.40;;;;;;8347255;28;19937;-74
2023/05/27 05:29:11;;;;;;;;;;;11.40;94.50;;;;;;8350033;28;20281;-74
2023/05/27 05:33:13;;;;;;;;;;;11.50;94.70;;;;;;8349582;28;19936;-74
2023/05/27 05:37:15;;;;;;;;;;;11.60;94.80;;;;;;8352710;28;20384;-74
2023/05/27 05:41:17;;;;;;;;;;;11.70;95.00;;;;;;8351622;28;19928;-74
2023/05/27 05:45:18;;;;;;;;;;;11.80;95.20;;;;;;8357065;28;19929;-74
2023/05/27 05:49:20;;;;;;;;;;;11.90;95.30;;;;;;8348105;28;19929;-74
2023/05/27 05:53:22;;;;;;;;;;;12.00;95.50;;;;;;8354462;28;20365;-74
2023/05/27 05:57:24;;;;;;;;;;;12.10;95.60;;;;;;8354753;28;19928;-74
2023/05/27 06:06:28;;;;;;;;;;;12.30;95.90;;;;;;8341804;28;20398;-74
2023/05/27 06:20:38;;;;;;;;;;;12.60;96.40;;;;;;8358198;28;19920;-74
2023/05/27 06:24:39;;;;;;;;;;;12.70;96.60;;;;;;8306596;28;2104046;-74
2023/05/27 06:28:41;;;;;;;;;;;12.80;96.80;;;;;;8385486;28;19924;-74
2023/05/27 06:32:43;;;;;;;;;;;12.90;97.00;;;;;;8381206;28;19931;-73
2023/05/27 06:37:00;;;;;;;;;;;13.00;97.10;;;;;;8377393;28;19932;-73
2023/05/27 06:41:02;;;;;;;;;;;13.10;97.30;;;;;;8377929;28;19925;-73
2023/05/27 06:45:04;;;;;;;;;;;13.20;97.40;;;;;;8386026;28;20344;-73
2023/05/27 06:49:08;;;;;;;;;;;13.40;97.60;;;;;;8382334;28;19967;-74
2023/05/27 06:53:10;;;;;;;;;;;13.50;97.70;;;;;;8382445;28;19924;-74
2023/05/27 06:57:12;;;;;;;;;;;13.60;97.70;;;;;;8386050;28;19986;-73
2023/05/27 07:01:13;;;;;;;;;;;13.70;97.90;;;;;;8362498;28;19932;-73
2023/05/27 07:05:15;;;;;;;;;;;13.80;98.10;;;;;;8387379;28;19924;-73
2023/05/27 07:09:17;;;;;;;;;;;13.90;98.10;;;;;;8395116;28;20332;-73
2023/05/27 07:13:19;;;;;;;;;;;14.00;98.20;;;;;;8381462;28;20272;-74
2023/05/27 07:17:20;;;;;;;;;;;14.00;98.30;;;;;;8391946;28;20041;-73
2023/05/27 07:21:22;;;;;;;;;;;14.20;98.50;;;;;;8393835;28;19986;-73
2023/05/27 07:25:24;;;;;;;;;;;14.30;98.70;;;;;;8400837;28;19952;-73
2023/05/27 07:34:30;;;;;;;;;;;14.70;99.00;;;;;;8391155;28;19963;-73
2023/05/27 07:38:32;;;;;;;;;;;14.80;99.00;;;;;;8386901;28;22093;-73
2023/05/27 07:42:33;;;;;;;;;;;14.80;99.00;;;;;;8385592;28;19935;-73
2023/05/27 07:46:38;;;;;;;;;;;14.90;99.10;;;;;;8382035;28;19972;-73
2023/05/27 07:50:40;;;;;;;;;;;15.00;99.20;;;;;;8397982;28;20286;-74
2023/05/27 07:54:42;;;;;;;;;;;15.00;99.30;;;;;;8390617;28;19932;-73
2023/05/27 07:58:51;;;;;;;;;;;15.10;99.50;;;;;;8394438;28;19971;-73
2023/05/27 08:02:53;;;;;;;;;;;15.20;99.60;;;;;;8375433;28;19929;-73
2023/05/27 08:06:55;;;;;;;;;;;15.30;99.60;;;;;;8379843;28;20380;-73
2023/05/27 08:10:57;;;;;;;;;;;15.40;99.60;;;;;;8387116;28;19948;-74
2023/05/27 08:14:58;;;;;;;;;;;15.40;99.60;;;;;;8387684;28;20076;-73
2023/05/27 08:19:00;;;;;;;;;;;15.40;99.60;;;;;;8377934;28;19924;-73
2023/05/27 08:23:02;;;;;;;;;;;15.40;99.70;;;;;;8386891;28;19924;-73
2023/05/27 08:27:05;;;;;;;;;;;15.50;99.80;;;;;;8380876;28;19932;-73
2023/05/27 08:31:07;;;;;;;;;;;15.50;99.90;;;;;;8385548;28;20267;-73
2023/05/27 08:35:10;;;;;;;;;;;15.60;99.90;;;;;;8380480;28;19936;-73
2023/05/27 08:39:12;;;;;;;;;;;15.60;99.90;;;;;;8387456;28;19978;-73
2023/05/27 08:43:15;;;;;;;;;;;15.60;99.90;;;;;;8384632;28;19928;-73
2023/05/27 08:47:17;;;;;;;;;;;15.70;99.90;;;;;;8394518;28;19925;-73
2023/05/27 08:51:18;;;;;;;;;;;15.70;99.90;;;;;;8389726;28;20001;-73
2023/05/27 08:55:21;;;;;;;;;;;15.80;99.90;;;;;;8388212;28;19932;-73
2023/05/27 08:59:23;;;;;;;;;;;15.90;99.90;;;;;;8389180;28;20411;-73
2023/05/27 09:03:27;;;;;;;;;;;16.00;99.90;;;;;;8376332;28;19928;-73
2023/05/27 09:07:29;;;;;;;;;;;16.10;99.90;;;;;;8372382;28;19931;-73
2023/05/27 09:11:35;;;;;;;;;;;16.20;99.90;;;;;;8358930;28;19972;-73
2023/05/27 09:15:37;;;;;;;;;;;16.30;99.90;;;;;;8363214;28;19964;-73
2023/05/27 09:19:38;;;;;;;;;;;16.50;99.90;;;;;;8358215;28;19929;-73
2023/05/27 09:23:40;;;;;;;;;;;16.50;99.90;;;;;;8358917;28;19971;-73
2023/05/27 09:27:42;;;;;;;;;;;16.60;99.90;;;;;;8356578;28;20274;-73
2023/05/27 09:31:44;;;;;;;;;;;16.70;99.90;;;;;;8367686;28;19929;-74
2023/05/27 09:35:46;;;;;;;;;;;16.80;99.90;;;;;;8387920;28;19929;-73
2023/05/27 09:39:51;;;;;;;;;;;16.90;99.90;;;;;;8367675;28;19974;-73
2023/05/27 09:43:53;;;;;;;;;;;17.00;99.90;;;;;;8369426;28;20427;-72
2023/05/27 09:47:56;;;;;;;;;;;17.00;99.90;;;;;;8360195;28;20303;-73
2023/05/27 09:51:58;;;;;;;;;;;17.10;99.90;;;;;;8365480;28;21144;-73
2023/05/27 09:56:00;;;;;;;;;;;17.20;99.90;;;;;;8362086;28;20335;-73
2023/05/27 10:00:09;;;;;;;;;;;17.30;99.90;;;;;;8358859;28;19928;-73
2023/05/27 10:04:13;;;;;;;;;;;17.40;99.90;;;;;;8363413;28;19931;-73
2023/05/27 10:08:15;;;;;;;;;;;17.40;99.90;;;;;;8359935;28;19935;-73
2023/05/27 10:12:26;;;;;;;;;;;17.50;99.90;;;;;;8365537;28;19981;-71
2023/05/27 10:16:28;;;;;;;;;;;17.60;99.90;;;;;;8360390;28;20404;-71
2023/05/27 10:20:42;;;;;;;;;;;17.70;99.90;;;;;;8359195;28;19931;-71
2023/05/27 10:24:46;;;;;;;;;;;17.70;99.90;;;;;;8338260;28;19932;-71
2023/05/27 10:28:47;;;;;;;;;;;17.70;99.90;;;;;;8364593;28;20033;-71
2023/05/27 10:32:49;;;;;;;;;;;17.80;99.90;;;;;;8362214;28;19932;-71
2023/05/27 10:36:59;;;;;;;;;;;17.90;99.90;;;;;;8362569;28;19931;-71
2023/05/27 10:41:01;;;;;;;;;;;18.00;99.90;;;;;;8355315;28;20265;-71
2023/05/27 10:45:07;;;;;;;;;;;18.10;99.90;;;;;;8370997;28;19929;-70
2023/05/27 10:49:35;;;;;;;;;;;18.20;99.90;;;;;;8364650;28;19951;-70
2023/05/27 10:53:37;;;;;;;;;;;18.30;99.90;;;;;;8361412;28;19939;-70
2023/05/27 10:57:39;;;;;;;;;;;18.40;99.90;;;;;;8354301;28;20014;-70
2023/05/27 11:01:40;;;;;;;;;;;18.40;99.90;;;;;;8368765;28;19929;-70
2023/05/27 11:05:42;;;;;;;;;;;18.50;99.90;;;;;;8383809;28;19924;-70
2023/05/27 11:09:48;;;;;;;;;;;18.60;99.90;;;;;;8367008;28;19924;-70
2023/05/27 11:13:49;;;;;;;;;;;18.70;99.90;;;;;;8367503;28;19929;-70
2023/05/27 11:17:51;;;;;;;;;;;18.70;99.90;;;;;;8351235;28;19924;-70
2023/05/27 11:21:53;;;;;;;;;;;18.80;99.90;;;;;;8366991;28;20359;-70
2023/05/27 11:25:54;;;;;;;;;;;18.90;99.90;;;;;;8367847;28;19932;-70
2023/05/27 11:29:56;;;;;;;;;;;19.00;99.90;;;;;;8369639;28;19925;-70
2023/05/27 11:33:58;;;;;;;;;;;19.00;99.90;;;;;;8354022;28;19947;-70
2023/05/27 11:38:01;;;;;;;;;;;19.10;99.90;;;;;;8372190;28;19964;-70
2023/05/27 11:42:08;;;;;;;;;;;19.20;99.90;;;;;;8374960;28;19928;-70
2023/05/27 11:46:09;;;;;;;;;;;19.20;99.90;;;;;;8368730;28;19936;-70
2023/05/27 11:50:14;;;;;;;;;;;19.30;99.90;;;;;;8369779;28;19940;-70
2023/05/27 11:54:23;;;;;;;;;;;19.30;99.90;;;;;;8371406;28;19987;-71
2023/05/27 11:58:24;;;;;;;;;;;19.40;99.90;;;;;;8375827;28;19928;-70
2023/05/27 12:02:26;;;;;;;;;;;19.50;99.90;;;;;;8351272;28;20602;-71
2023/05/27 12:06:27;;;;;;;;;;;19.50;99.90;;;;;;8370604;28;19928;-71
2023/05/27 12:10:29;;;;;;;;;;;19.60;99.90;;;;;;8356261;28;20283;-70
2023/05/27 12:14:31;;;;;;;;;;;19.70;99.90;;;;;;8377928;28;19928;-71
2023/05/27 12:18:33;;;;;;;;;;;19.70;99.90;;;;;;8363162;28;19956;-71
2023/05/27 12:22:35;;;;;;;;;;;19.80;99.90;;;;;;8372019;28;19932;-71
2023/05/27 12:26:37;;;;;;;;;;;19.90;99.90;;;;;;8365484;28;19924;-71
2023/05/27 12:30:38;;;;;;;;;;;19.90;99.90;;;;;;8362576;28;20372;-71
2023/05/27 12:34:40;;;;;;;;;;;19.90;99.90;;;;;;8371685;28;24548;-71
2023/05/27 12:38:42;;;;;;;;;;;20.00;99.90;;;;;;8369487;28;19936;-70
2023/05/27 12:42:43;;;;;;;;;;;20.10;99.90;;;;;;8371041;28;19929;-70
2023/05/27 12:46:45;;;;;;;;;;;20.10;99.90;;;;;;8367637;28;19932;-70
2023/05/27 12:50:47;;;;;;;;;;;20.20;99.90;;;;;;8373547;28;19967;-71
2023/05/27 12:54:48;;;;;;;;;;;20.30;99.90;;;;;;8369304;28;19944;-71
2023/05/27 12:58:50;;;;;;;;;;;20.30;99.90;;;;;;8367967;28;19925;-71
2023/05/27 13:02:52;;;;;;;;;;;20.40;99.90;;;;;;8364809;28;19925;-70
2023/05/27 13:06:54;;;;;;;;;;;20.50;99.90;;;;;;8363051;28;20376;-71
2023/05/27 13:10:56;;;;;;;;;;;20.50;99.90;;;;;;8368840;28;20015;-70
2023/05/27 13:14:58;;;;;;;;;;;20.60;99.90;;;;;;8361909;28;19967;-70
2023/05/27 13:19:00;;;;;;;;;;;20.70;99.90;;;;;;8368436;28;19924;-71
2023/05/27 13:23:01;;;;;;;;;;;20.70;99.90;;;;;;8366677;28;20394;-71
2023/05/27 13:27:04;;;;;;;;;;;20.80;99.90;;;;;;8385486;28;19928;-71
2023/05/27 13:31:05;;;;;;;;;;;20.90;99.90;;;;;;8362883;28;19932;-70
2023/05/27 13:35:07;;;;;;;;;;;20.90;99.90;;;;;;8374450;28;19939;-71
2023/05/27 13:39:10;;;;;;;;;;;21.00;99.90;;;;;;8365142;28;19928;-71
2023/05/27 13:43:12;;;;;;;;;;;21.00;99.90;;;;;;8364847;28;20346;-70
2023/05/27 13:47:14;;;;;;;;;;;21.10;99.90;;;;;;8374268;28;20277;-71
2023/05/27 13:51:15;;;;;;;;;;;21.10;99.90;;;;;;8348213;28;19941;-71
2023/05/27 13:55:17;;;;;;;;;;;21.10;99.90;;;;;;8364061;28;19932;-71
2023/05/27 13:59:18;;;;;;;;;;;21.20;99.90;;;;;;8362194;28;19925;-70
2023/05/27 14:03:22;;;;;;;;;;;21.20;99.90;;;;;;8365832;28;19925;-71
2023/05/27 14:07:23;;;;;;;;;;;21.30;99.90;;;;;;8360503;28;19929;-70
2023/05/27 14:11:25;;;;;;;;;;;21.30;99.90;;;;;;8371691;28;20234;-70
2023/05/27 14:15:28;;;;;;;;;;;21.40;99.90;;;;;;8369592;28;19931;-71
2023/05/27 14:19:29;;;;;;;;;;;21.50;99.90;;;;;;8378726;28;19924;-71
2023/05/27 14:23:31;;;;;;;;;;;21.60;99.90;;;;;;8368589;28;19932;-70
2023/05/27 14:27:33;;;;;;;;;;;21.70;99.90;;;;;;8375184;28;19947;-71
2023/05/27 14:31:34;;;;;;;;;;;21.90;99.90;;;;;;8374591;28;20356;-70
2023/05/27 14:35:36;;;;;;;;;;;22.00;99.90;;;;;;8374858;28;20007;-70
2023/05/27 14:39:38;;;;;;;;;;;22.10;99.90;;;;;;8357713;28;19924;-71
2023/05/27 14:43:40;;;;;;;;;;;22.20;99.90;;;;;;8362215;28;20636;-70
2023/05/27 14:47:41;;;;;;;;;;;22.40;99.90;;;;;;8367343;28;20277;-71
2023/05/27 14:56:31;;;;;;;;;;;22.60;99.90;;;;;;8359287;28;19928;-71
2023/05/27 15:00:33;;;;;;;;;;;22.60;99.90;;;;;;8363745;28;20297;-71
2023/05/27 15:04:35;;;;;;;;;;;22.60;99.90;;;;;;8365732;28;20070;-70
2023/05/27 15:18:44;;;;;;;;;;;22.70;99.90;;;;;;8361521;28;19928;-71
2023/05/27 15:22:46;;;;;;;;;;;22.80;99.90;;;;;;8381880;28;19932;-70
2023/05/27 15:26:47;;;;;;;;;;;22.80;99.90;;;;;;8362947;28;19929;-71
2023/05/27 15:30:51;;;;;;;;;;;22.90;99.90;;;;;;8365916;28;19932;-70
2023/05/27 15:34:53;;;;;;;;;;;23.00;99.90;;;;;;8371371;28;19925;-71
2023/05/27 15:38:55;;;;;;;;;;;23.00;99.90;;;;;;8366167;28;19936;-70
2023/05/27 15:42:56;;;;;;;;;;;23.10;99.90;;;;;;8363586;28;19932;-70
2023/05/27 15:46:58;;;;;;;;;;;23.30;99.90;;;;;;8362985;28;19974;-70
2023/05/27 15:51:00;;;;;;;;;;;23.60;99.90;;;;;;8356597;28;20396;-70
2023/05/27 15:55:02;;;;;;;;;;;24.00;99.90;;;;;;8367144;28;21524;-70
2023/05/27 15:59:04;;;;;;;;;;;24.50;99.90;;;;;;8360742;28;19936;-70
2023/05/27 16:03:05;;;;;;;;;;;25.00;99.90;;;;;;8361839;28;19932;-70
2023/05/27 16:07:07;;;;;;;;;;;25.50;99.90;;;;;;8359812;28;20020;-70
2023/05/27 16:11:09;;;;;;;;;;;25.80;99.90;;;;;;8360616;28;20502;-70
2023/05/27 16:15:12;;;;;;;;;;;26.10;99.90;;;;;;8359211;28;19948;-70
2023/05/27 16:19:14;;;;;;;;;;;26.30;99.90;;;;;;8363742;28;20372;-70
2023/05/27 16:23:16;;;;;;;;;;;26.50;99.90;;;;;;8361700;28;19948;-70
2023/05/27 16:27:17;;;;;;;;;;;26.60;99.90;;;;;;8346350;28;19925;-71
2023/05/27 16:31:20;;;;;;;;;;;26.70;99.90;;;;;;8361070;28;19932;-70
2023/05/27 16:35:22;;;;;;;;;;;26.80;99.90;;;;;;8369135;28;19931;-70
2023/05/27 16:39:23;;;;;;;;;;;26.80;99.90;;;;;;8364493;28;20300;-70
2023/05/27 16:43:25;;;;;;;;;;;26.90;99.90;;;;;;8361470;28;19932;-71
2023/05/27 16:47:27;;;;;;;;;;;26.90;99.90;;;;;;8346953;28;19936;-70
2023/05/27 16:51:29;;;;;;;;;;;26.90;99.90;;;;;;8360851;28;19964;-70
2023/05/27 16:55:31;;;;;;;;;;;26.90;99.90;;;;;;8359896;28;19932;-70
2023/05/27 16:59:32;;;;;;;;;;;26.80;99.90;;;;;;8361316;28;19925;-70
2023/05/27 17:03:35;;;;;;;;;;;26.60;99.90;;;;;;8360496;28;20005;-70
2023/05/27 17:07:36;;;;;;;;;;;26.40;99.90;;;;;;8346095;28;19936;-70
2023/05/27 17:11:38;;;;;;;;;;;26.20;99.90;;;;;;8356899;28;19925;-70
2023/05/27 17:15:40;;;;;;;;;;;25.80;99.90;;;;;;8356707;28;19924;-71
2023/05/27 17:19:45;;;;;;;;;;;25.50;99.10;;;;;;8363509;28;20369;-70
2023/05/27 17:23:47;;;;;;;;;;;25.20;98.70;;;;;;8360880;28;20503;-70
2023/05/27 17:27:48;;;;;;;;;;;25.00;98.70;;;;;;8363250;28;20308;-70
2023/05/27 17:31:50;;;;;;;;;;;24.80;98.40;;;;;;8359133;28;19924;-70
2023/05/27 17:35:52;;;;;;;;;;;24.60;98.30;;;;;;8363449;28;19925;-70
2023/05/27 17:39:53;;;;;;;;;;;24.50;98.20;;;;;;8362196;28;20330;-69
2023/05/27 17:43:55;;;;;;;;;;;24.30;98.20;;;;;;8369885;28;19974;-70
2023/05/27 17:47:57;;;;;;;;;;;24.20;98.20;;;;;;8366543;28;20436;-70
2023/05/27 17:51:58;;;;;;;;;;;24.10;98.10;;;;;;8376079;28;19931;-70
2023/05/27 17:56:02;;;;;;;;;;;23.90;98.00;;;;;;8353258;28;19964;-70
2023/05/27 18:00:05;;;;;;;;;;;23.70;97.90;;;;;;8367829;28;20521;-70
2023/05/27 18:04:07;;;;;;;;;;;23.60;97.80;;;;;;8364479;28;19939;-70
2023/05/27 18:08:08;;;;;;;;;;;23.40;97.70;;;;;;8362260;28;19928;-70
2023/05/27 18:12:10;;;;;;;;;;;23.20;97.60;;;;;;8354478;28;19929;-70
2023/05/27 18:16:12;;;;;;;;;;;23.00;97.60;;;;;;8361999;28;19925;-70
2023/05/27 18:20:13;;;;;;;;;;;22.90;97.60;;;;;;8358062;28;19925;-70
2023/05/27 18:24:15;;;;;;;;;;;22.80;97.60;;;;;;8362706;28;19971;-70
2023/05/27 18:28:17;;;;;;;;;;;22.70;97.60;;;;;;8371287;28;20065;-70
2023/05/27 18:32:19;;;;;;;;;;;22.60;97.50;;;;;;8357904;28;19931;-70
2023/05/27 18:51:32;;;;;;;;;;;22.20;97.40;;;;;;8366393;28;19962;-70
2023/05/27 18:55:33;;;;;;;;;;;22.00;97.40;;;;;;8369458;28;20402;-70
2023/05/27 18:59:35;;;;;;;;;;;21.90;97.40;;;;;;8355477;28;20342;-70
2023/05/27 19:03:36;;;;;;;;;;;21.80;97.40;;;;;;8375655;28;19929;-71
2023/05/27 19:07:38;;;;;;;;;;;21.70;97.40;;;;;;8360746;28;20492;-70
2023/05/27 19:11:40;;;;;;;;;;;21.60;97.40;;;;;;8371658;28;19990;-71
2023/05/27 19:15:41;;;;;;;;;;;21.60;97.40;;;;;;8353895;28;19925;-71
2023/05/27 19:19:45;;;;;;;;;;;21.50;97.40;;;;;;8365935;28;19928;-71
2023/05/27 19:23:46;;;;;;;;;;;21.30;97.30;;;;;;8371901;28;19924;-71
2023/05/27 19:27:48;;;;;;;;;;;21.20;97.30;;;;;;8365760;28;20345;-70
2023/05/27 19:31:50;;;;;;;;;;;21.10;97.30;;;;;;8362343;28;19963;-71
2023/05/27 19:35:51;;;;;;;;;;;21.00;97.30;;;;;;8365400;28;19929;-71
2023/05/27 19:39:55;;;;;;;;;;;20.90;97.30;;;;;;8377320;28;20430;-71
2023/05/27 19:43:56;;;;;;;;;;;20.80;97.30;;;;;;8370528;28;20335;-71
2023/05/27 19:47:58;;;;;;;;;;;20.60;97.20;;;;;;8376665;28;19970;-70
2023/05/27 19:52:00;;;;;;;;;;;20.50;97.20;;;;;;8369892;28;19931;-71
2023/05/27 19:56:04;;;;;;;;;;;20.40;97.20;;;;;;8361889;28;19924;-71
2023/05/27 20:00:09;;;;;;;;;;;20.30;97.20;;;;;;8369829;28;20280;-71
2023/05/27 20:04:10;;;;;;;;;;;20.20;97.30;;;;;;8366446;28;20422;-71
2023/05/27 20:08:12;;;;;;;;;;;20.10;97.30;;;;;;8365304;28;19935;-71
2023/05/27 20:12:14;;;;;;;;;;;20.10;97.40;;;;;;8368062;28;20379;-71
2023/05/27 20:16:15;;;;;;;;;;;19.90;97.40;;;;;;8366768;28;19931;-71
2023/05/27 20:20:20;;;;;;;;;;;19.80;97.50;;;;;;8371545;28;19928;-71
2023/05/27 20:24:22;;;;;;;;;;;19.70;97.50;;;;;;8368544;28;20054;-71
2023/05/27 20:28:24;;;;;;;;;;;19.60;97.60;;;;;;8364203;28;19932;-71
2023/05/27 20:32:26;;;;;;;;;;;19.50;97.70;;;;;;8372380;28;20291;-71
2023/05/27 20:36:27;;;;;;;;;;;19.40;97.70;;;;;;8370943;28;20012;-71
2023/05/27 20:40:29;;;;;;;;;;;19.40;97.70;;;;;;8371014;28;19933;-71
2023/05/27 20:44:31;;;;;;;;;;;19.30;97.70;;;;;;8362425;28;19924;-71
2023/05/27 20:48:32;;;;;;;;;;;19.30;97.80;;;;;;8355235;28;19935;-71
2023/05/27 20:52:34;;;;;;;;;;;19.20;97.80;;;;;;8350982;28;19925;-70
2023/05/27 20:56:36;;;;;;;;;;;19.20;97.90;;;;;;8365659;28;19932;-71
2023/05/27 21:00:37;;;;;;;;;;;19.10;98.00;;;;;;8373394;28;19928;-71
2023/05/27 21:04:40;;;;;;;;;;;19.10;98.00;;;;;;8363246;28;19940;-71
2023/05/27 21:08:42;;;;;;;;;;;19.00;98.00;;;;;;8379267;28;19970;-71
2023/05/27 21:12:44;;;;;;;;;;;19.00;98.00;;;;;;8389860;28;19977;-71
2023/05/27 21:16:46;;;;;;;;;;;18.90;98.00;;;;;;8389663;28;19932;-71
2023/05/27 21:20:48;;;;;;;;;;;18.90;98.10;;;;;;8370634;28;19940;-71
2023/05/27 21:24:51;;;;;;;;;;;18.80;98.10;;;;;;8377318;28;20087;-70
2023/05/27 21:28:53;;;;;;;;;;;18.70;98.20;;;;;;8386517;28;19928;-70
2023/05/27 21:32:55;;;;;;;;;;;18.70;98.30;;;;;;8384379;28;19932;-71
2023/05/27 21:36:57;;;;;;;;;;;18.60;98.50;;;;;;8369143;28;19983;-70
2023/05/27 21:40:59;;;;;;;;;;;18.40;98.60;;;;;;8394147;28;20445;-70
2023/05/27 21:45:01;;;;;;;;;;;18.40;98.80;;;;;;8375886;28;20403;-70
2023/05/27 21:49:02;;;;;;;;;;;18.20;98.90;;;;;;8371994;28;20007;-70
2023/05/27 21:53:06;;;;;;;;;;;18.20;99.00;;;;;;8385168;28;20300;-71
2023/05/27 21:57:08;;;;;;;;;;;18.10;99.10;;;;;;8387814;28;20385;-70
2023/05/27 22:01:12;;;;;;;;;;;18.10;99.10;;;;;;8387781;28;19925;-70
2023/05/27 22:05:15;;;;;;;;;;;18.10;99.10;;;;;;8381251;28;19925;-71
2023/05/27 22:09:16;;;;;;;;;;;18.10;99.10;;;;;;8376789;28;20262;-71
2023/05/27 22:13:18;;;;;;;;;;;18.00;99.00;;;;;;8383294;28;22918;-70
2023/05/27 22:17:20;;;;;;;;;;;18.00;99.00;;;;;;8385322;28;19931;-71
2023/05/27 22:21:21;;;;;;;;;;;17.90;98.90;;;;;;8387986;28;19928;-71
2023/05/27 22:25:31;;;;;;;;;;;17.90;98.90;;;;;;8382998;28;19935;-70
2023/05/27 22:29:33;;;;;;;;;;;17.90;98.90;;;;;;8375914;28;20283;-71
2023/05/27 22:33:35;;;;;;;;;;;17.80;99.00;;;;;;8395880;28;19932;-70
2023/05/27 22:37:36;;;;;;;;;;;17.80;99.10;;;;;;8384321;28;19986;-70
2023/05/27 22:41:38;;;;;;;;;;;17.70;99.10;;;;;;8391665;28;20287;-70
2023/05/27 22:45:40;;;;;;;;;;;17.70;99.20;;;;;;8374297;28;19925;-71
2023/05/27 22:49:41;;;;;;;;;;;17.60;99.20;;;;;;8391115;28;19928;-70
2023/05/27 22:53:43;;;;;;;;;;;17.60;99.30;;;;;;8392398;28;19924;-70
2023/05/27 22:57:45;;;;;;;;;;;17.50;99.20;;;;;;8368076;28;19928;-70
2023/05/27 23:01:46;;;;;;;;;;;17.50;99.20;;;;;;8389082;28;20062;-70
2023/05/27 23:05:48;;;;;;;;;;;17.40;99.20;;;;;;8395112;28;19935;-70
2023/05/27 23:09:50;;;;;;;;;;;17.40;99.20;;;;;;8402420;28;20284;-71
2023/05/27 23:13:52;;;;;;;;;;;17.30;99.30;;;;;;8390235;28;19924;-70
2023/05/27 23:17:54;;;;;;;;;;;17.20;99.30;;;;;;8376714;28;20391;-71
2023/05/27 23:21:55;;;;;;;;;;;17.20;99.30;;;;;;8391543;28;19935;-70
2023/05/27 23:25:57;;;;;;;;;;;17.10;99.30;;;;;;8391417;28;19932;-71
2023/05/27 23:29:59;;;;;;;;;;;17.10;99.30;;;;;;8390732;28;19970;-71
2023/05/27 23:44:08;;;;;;;;;;;17.00;99.50;;;;;;8379412;28;19919;-71
2023/05/27 23:48:09;;;;;;;;;;;16.90;99.60;;;;;;8388056;28;19929;-70
2023/05/27 23:52:11;;;;;;;;;;;16.90;99.60;;;;;;8383807;28;20300;-70
2023/05/27 23:56:13;;;;;;;;;;;16.90;99.60;;;;;;8386645;28;19929;-71
